createdAt,value
2018-05-29T00:00:39.437Z,13.93
2018-05-29T00:03:06.898Z,13.60
2018-05-29T00:05:34.380Z,13.17
2018-05-29T00:08:01.834Z,13.90
2018-05-29T00:10:29.294Z,14.33
2018-05-29T00:12:56.947Z,14.53
2018-05-29T00:15:24.420Z,12.70
2018-05-29T00:17:51.896Z,14.07
2018-05-29T00:20:19.439Z,12.63
2018-05-29T00:22:47.064Z,13.83
2018-05-29T00:25:14.638Z,13.93
2018-05-29T00:27:42.103Z,10.17
2018-05-29T00:30:09.542Z,17.70
2018-05-29T00:32:37.017Z,11.60
2018-05-29T00:35:04.469Z,13.10
2018-05-29T00:37:31.996Z,12.27
2018-05-29T00:39:59.441Z,15.13
2018-05-29T00:42:26.948Z,11.00
2018-05-29T00:44:54.427Z,9.23
2018-05-29T00:47:21.889Z,21.10
2018-05-29T00:49:49.365Z,13.37
2018-05-29T00:52:16.827Z,11.10
2018-05-29T00:54:44.297Z,11.37
2018-05-29T00:57:11.762Z,12.50
2018-05-29T00:59:39.269Z,14.07
2018-05-29T01:02:06.704Z,11.80
2018-05-29T01:04:34.285Z,14.30
2018-05-29T01:07:01.812Z,14.93
2018-05-29T01:09:29.273Z,11.77
2018-05-29T01:11:56.770Z,15.00
2018-05-29T01:14:24.242Z,12.90
2018-05-29T01:16:51.692Z,14.57
2018-05-29T01:19:19.133Z,13.00
2018-05-29T01:21:46.599Z,13.70
2018-05-29T01:24:14.041Z,14.67
2018-05-29T01:26:41.490Z,11.43
2018-05-29T01:29:09.227Z,10.70
2018-05-29T01:31:36.663Z,11.50
2018-05-29T01:34:04.260Z,10.37
2018-05-29T01:36:31.709Z,11.40
2018-05-29T01:38:59.247Z,12.63
2018-05-29T01:41:26.700Z,16.83
2018-05-29T01:43:54.166Z,11.17
2018-05-29T01:46:21.601Z,13.73
2018-05-29T01:48:49.072Z,11.93
2018-05-29T01:51:16.559Z,12.80
2018-05-29T01:53:44.079Z,19.57
2018-05-29T01:56:11.557Z,9.67
2018-05-29T01:58:38.997Z,13.20
2018-05-29T02:01:06.872Z,13.97
2018-05-29T02:03:34.357Z,10.17
2018-05-29T02:06:01.921Z,11.70
2018-05-29T02:08:29.755Z,12.67
2018-05-29T02:10:57.294Z,12.80
2018-05-29T02:13:24.806Z,17.00
2018-05-29T02:15:52.247Z,13.20
2018-05-29T02:18:19.709Z,16.00
2018-05-29T02:20:47.211Z,11.23
2018-05-29T02:23:14.710Z,15.63
2018-05-29T02:25:42.144Z,15.43
2018-05-29T02:28:09.611Z,17.10
2018-05-29T02:30:37.057Z,15.70
2018-05-29T02:33:04.607Z,12.20
2018-05-29T02:35:32.041Z,12.43
2018-05-29T02:37:59.530Z,16.53
2018-05-29T02:40:26.261Z,15.93
2018-05-29T02:42:53.778Z,11.20
2018-05-29T02:45:21.802Z,10.67
2018-05-29T02:47:49.273Z,13.90
2018-05-29T02:50:16.721Z,13.87
2018-05-29T02:52:44.275Z,14.20
2018-05-29T02:55:11.743Z,14.07
2018-05-29T02:57:39.177Z,15.03
2018-05-29T03:00:06.651Z,13.80
2018-05-29T03:02:34.112Z,15.90
2018-05-29T03:05:01.588Z,15.33
2018-05-29T03:07:29.070Z,12.63
2018-05-29T03:09:56.588Z,13.47
2018-05-29T03:12:24.065Z,12.83
2018-05-29T03:14:51.497Z,10.47
2018-05-29T03:17:18.963Z,9.10
2018-05-29T03:19:46.409Z,11.57
2018-05-29T03:22:13.870Z,12.33
2018-05-29T03:24:41.305Z,9.70
2018-05-29T03:27:08.780Z,10.10
2018-05-29T03:29:36.238Z,15.53
2018-05-29T03:32:04.032Z,12.40
2018-05-29T03:34:31.544Z,11.37
2018-05-29T03:36:59.010Z,16.00
2018-05-29T03:39:26.455Z,14.47
2018-05-29T03:41:53.907Z,8.23
2018-05-29T03:44:22.226Z,12.93
2018-05-29T03:46:49.671Z,13.60
2018-05-29T03:49:17.125Z,11.97
2018-05-29T03:51:44.626Z,15.37
2018-05-29T03:54:12.179Z,12.30
2018-05-29T03:56:39.712Z,14.20
2018-05-29T03:59:07.197Z,12.50
2018-05-29T04:01:34.644Z,14.63
2018-05-29T04:04:02.127Z,13.57
2018-05-29T04:06:29.582Z,13.77
2018-05-29T04:08:57.050Z,16.17
2018-05-29T04:11:24.508Z,14.53
2018-05-29T04:13:51.991Z,13.50
2018-05-29T04:16:19.596Z,13.23
2018-05-29T04:18:47.132Z,16.10
2018-05-29T04:21:14.620Z,20.13
2018-05-29T04:23:42.256Z,14.83
2018-05-29T04:26:09.833Z,13.43
2018-05-29T04:28:37.315Z,16.97
2018-05-29T04:31:04.779Z,21.07
2018-05-29T04:33:32.231Z,22.30
2018-05-29T04:35:59.732Z,20.90
2018-05-29T04:38:27.181Z,26.83
2018-05-29T04:40:54.663Z,24.87
2018-05-29T04:43:22.096Z,21.33
2018-05-29T04:45:49.614Z,21.40
2018-05-29T04:48:17.162Z,22.23
2018-05-29T04:50:44.756Z,15.30
2018-05-29T04:53:13.337Z,16.80
2018-05-29T04:55:40.986Z,25.90
2018-05-29T04:58:08.530Z,18.13
2018-05-29T05:00:35.963Z,15.60
2018-05-29T05:03:03.420Z,15.77
2018-05-29T05:05:30.889Z,15.37
2018-05-29T05:07:58.381Z,19.20
2018-05-29T05:10:25.842Z,16.70
2018-05-29T05:12:53.319Z,16.13
2018-05-29T05:15:20.805Z,21.37
2018-05-29T05:17:48.338Z,19.77
2018-05-29T05:20:15.825Z,20.57
2018-05-29T05:22:43.237Z,20.90
2018-05-29T05:25:10.768Z,18.50
2018-05-29T05:27:38.232Z,17.07
2018-05-29T05:30:05.700Z,14.40
2018-05-29T05:32:33.384Z,17.50
2018-05-29T05:35:00.851Z,17.27
2018-05-29T05:37:28.349Z,18.23
2018-05-29T05:39:55.838Z,17.50
2018-05-29T05:42:23.293Z,18.00
2018-05-29T05:44:50.757Z,16.07
2018-05-29T05:47:18.205Z,20.50
2018-05-29T05:49:45.779Z,20.03
2018-05-29T05:52:13.251Z,15.60
2018-05-29T05:54:40.715Z,17.50
2018-05-29T05:57:08.184Z,18.30
2018-05-29T05:59:35.678Z,18.20
2018-05-29T06:02:03.181Z,18.27
2018-05-29T06:04:30.677Z,16.70
2018-05-29T06:06:58.159Z,17.50
2018-05-29T06:09:25.644Z,20.60
2018-05-29T06:11:53.138Z,16.00
2018-05-29T06:14:21.484Z,17.60
2018-05-29T06:16:48.942Z,17.20
2018-05-29T06:19:16.404Z,17.97
2018-05-29T06:21:43.840Z,18.77
2018-05-29T06:24:11.745Z,18.57
2018-05-29T06:26:39.198Z,14.00
2018-05-29T06:29:06.752Z,18.63
2018-05-29T06:31:34.257Z,16.93
2018-05-29T06:34:01.713Z,18.00
2018-05-29T06:36:29.195Z,19.00
2018-05-29T06:38:56.906Z,22.83
2018-05-29T06:41:24.426Z,20.80
2018-05-29T06:43:51.908Z,18.60
2018-05-29T06:46:19.359Z,22.60
2018-05-29T06:48:46.788Z,17.83
2018-05-29T06:51:14.983Z,16.53
2018-05-29T06:53:42.424Z,16.40
2018-05-29T06:56:10.509Z,18.30
2018-05-29T06:58:38.010Z,22.00
2018-05-29T07:01:05.928Z,17.13
2018-05-29T07:03:33.394Z,15.20
2018-05-29T07:06:00.877Z,17.63
2018-05-29T07:08:28.319Z,16.20
2018-05-29T07:10:55.790Z,19.40
2018-05-29T07:13:23.279Z,16.10
2018-05-29T07:15:50.808Z,19.03
2018-05-29T07:18:18.295Z,18.47
2018-05-29T07:20:45.756Z,17.87
2018-05-29T07:23:13.223Z,21.53
2018-05-29T07:25:41.079Z,15.13
2018-05-29T07:28:08.536Z,21.93
2018-05-29T07:30:35.974Z,15.53
2018-05-29T07:33:03.608Z,22.70
2018-05-29T07:35:31.678Z,20.13
2018-05-29T07:37:59.211Z,22.73
2018-05-29T07:40:26.668Z,15.53
2018-05-29T07:42:54.398Z,21.67
2018-05-29T07:45:22.030Z,16.60
2018-05-29T07:47:49.526Z,14.70
2018-05-29T07:50:17.129Z,17.17
2018-05-29T07:52:44.572Z,14.83
2018-05-29T07:55:12.224Z,15.67
2018-05-29T07:57:39.757Z,26.33
2018-05-29T08:00:07.220Z,18.57
2018-05-29T08:02:34.716Z,16.37
2018-05-29T08:05:02.341Z,17.07
2018-05-29T08:07:29.794Z,20.20
2018-05-29T08:09:57.271Z,21.80
2018-05-29T08:12:24.721Z,13.80
2018-05-29T08:14:52.195Z,17.27
2018-05-29T08:17:19.703Z,18.30
2018-05-29T08:19:47.789Z,15.30
2018-05-29T08:22:15.232Z,16.60
2018-05-29T08:24:43.102Z,19.67
2018-05-29T08:27:11.226Z,16.57
2018-05-29T08:29:38.767Z,15.97
2018-05-29T08:32:06.301Z,15.90
2018-05-29T08:34:33.794Z,13.90
2018-05-29T08:37:01.345Z,12.60
2018-05-29T08:39:28.816Z,16.90
2018-05-29T08:41:56.273Z,16.30
2018-05-29T08:44:23.719Z,16.90
2018-05-29T08:46:51.203Z,14.70
2018-05-29T08:49:18.680Z,13.97
2018-05-29T08:51:46.137Z,19.33
2018-05-29T08:54:13.669Z,14.00
2018-05-29T08:56:41.266Z,24.27
2018-05-29T08:59:08.669Z,13.73
2018-05-29T09:01:36.139Z,16.73
2018-05-29T09:04:03.649Z,16.10
2018-05-29T09:06:31.113Z,13.83
2018-05-29T09:08:59.320Z,18.63
2018-05-29T09:11:26.808Z,13.80
2018-05-29T09:13:54.295Z,12.60
2018-05-29T09:16:21.751Z,15.30
2018-05-29T09:18:49.408Z,14.97
2018-05-29T09:21:17.037Z,17.50
2018-05-29T09:23:44.555Z,15.03
2018-05-29T09:26:12.741Z,13.63
2018-05-29T09:28:40.921Z,14.70
2018-05-29T09:31:08.371Z,14.00
2018-05-29T09:33:36.616Z,16.60
2018-05-29T09:36:04.058Z,15.40
2018-05-29T09:38:32.530Z,14.63
2018-05-29T09:40:59.981Z,15.47
2018-05-29T09:43:27.473Z,13.93
2018-05-29T09:45:55.662Z,19.67
2018-05-29T09:48:23.252Z,16.07
2018-05-29T09:50:51.241Z,18.53
2018-05-29T09:53:18.925Z,20.53
2018-05-29T09:55:46.375Z,14.40
2018-05-29T09:58:14.159Z,15.67
2018-05-29T10:00:41.686Z,15.40
2018-05-29T10:03:09.173Z,15.97
2018-05-29T10:05:36.625Z,16.73
2018-05-29T10:08:04.560Z,15.17
2018-05-29T10:10:32.085Z,14.37
2018-05-29T10:12:59.910Z,15.37
2018-05-29T10:15:27.380Z,15.30
2018-05-29T10:17:54.899Z,15.53
2018-05-29T10:20:22.372Z,14.40
2018-05-29T10:22:50.467Z,15.00
2018-05-29T10:25:18.008Z,18.50
2018-05-29T10:27:45.473Z,16.63
2018-05-29T10:30:12.948Z,12.73
2018-05-29T10:32:40.411Z,14.90
2018-05-29T10:35:07.900Z,12.63
2018-05-29T10:37:36.157Z,15.00
2018-05-29T10:40:03.726Z,11.83
2018-05-29T10:42:31.194Z,13.70
2018-05-29T10:44:58.660Z,15.60
2018-05-29T10:47:26.119Z,12.67
2018-05-29T10:49:54.024Z,9.50
2018-05-29T10:52:21.495Z,11.23
2018-05-29T10:54:49.031Z,12.20
2018-05-29T10:57:16.532Z,11.20
2018-05-29T10:59:44.050Z,11.23
2018-05-29T11:02:11.526Z,12.93
2018-05-29T11:04:38.982Z,11.00
2018-05-29T11:07:06.500Z,14.93
2018-05-29T11:09:34.986Z,12.33
2018-05-29T11:12:04.323Z,13.70
2018-05-29T11:14:31.777Z,11.20
2018-05-29T11:17:00.230Z,11.27
2018-05-29T11:19:27.687Z,13.27
2018-05-29T11:21:55.166Z,10.23
2018-05-29T11:24:22.658Z,11.20
2018-05-29T11:26:50.526Z,14.07
2018-05-29T11:29:18.336Z,14.40
2018-05-29T11:31:45.801Z,12.77
2018-05-29T11:34:13.412Z,12.93
2018-05-29T11:36:40.923Z,11.73
2018-05-29T11:39:08.382Z,10.63
2018-05-29T11:41:35.839Z,14.07
2018-05-29T11:44:03.304Z,10.50
2018-05-29T11:46:30.772Z,14.00
2018-05-29T11:48:58.337Z,9.50
2018-05-29T11:51:25.820Z,10.67
2018-05-29T11:53:53.317Z,11.47
2018-05-29T11:56:20.739Z,11.33
2018-05-29T11:58:52.090Z,11.97
2018-05-29T12:01:20.385Z,12.17
2018-05-29T12:03:47.912Z,10.60
2018-05-29T12:06:19.169Z,10.70
2018-05-29T12:08:47.380Z,13.60
2018-05-29T12:11:15.735Z,12.67
2018-05-29T12:13:43.215Z,15.70
2018-05-29T12:16:10.845Z,10.93
2018-05-29T12:18:38.326Z,10.40
2018-05-29T12:21:05.788Z,11.43
2018-05-29T12:23:33.251Z,15.10
2018-05-29T12:26:00.713Z,11.23
2018-05-29T12:28:28.224Z,15.23
2018-05-29T12:30:55.700Z,15.43
2018-05-29T12:33:23.342Z,13.73
2018-05-29T12:35:51.515Z,10.37
2018-05-29T12:38:19.109Z,11.67
2018-05-29T12:40:46.605Z,12.60
2018-05-29T12:43:14.083Z,11.40
2018-05-29T12:45:41.616Z,13.77
2018-05-29T12:48:09.503Z,14.70
2018-05-29T12:50:36.931Z,11.87
2018-05-29T12:53:04.474Z,13.70
2018-05-29T12:55:31.989Z,10.67
2018-05-29T12:57:59.568Z,10.00
2018-05-29T13:00:27.096Z,11.07
2018-05-29T13:02:54.693Z,13.07
2018-05-29T13:05:22.274Z,10.60
2018-05-29T13:07:49.753Z,11.30
2018-05-29T13:10:17.301Z,10.77
2018-05-29T13:12:45.218Z,11.77
2018-05-29T13:15:12.666Z,10.73
2018-05-29T13:17:40.674Z,14.90
2018-05-29T13:20:08.146Z,11.87
2018-05-29T13:22:36.586Z,8.87
2018-05-29T13:25:04.123Z,13.57
2018-05-29T13:27:31.614Z,12.80
2018-05-29T13:30:00.294Z,14.83
2018-05-29T13:32:27.772Z,13.90
2018-05-29T13:34:55.362Z,11.03
2018-05-29T13:37:22.895Z,15.77
2018-05-29T13:39:50.549Z,10.63
2018-05-29T13:42:17.982Z,8.70
2018-05-29T13:44:45.460Z,12.07
2018-05-29T13:47:13.287Z,13.70
2018-05-29T13:49:40.830Z,8.90
2018-05-29T13:52:08.607Z,14.13
2018-05-29T13:54:36.072Z,15.03
2018-05-29T13:57:05.796Z,8.17
2018-05-29T13:59:34.199Z,11.60
2018-05-29T14:02:02.741Z,12.57
2018-05-29T14:04:30.189Z,12.30
2018-05-29T14:06:57.883Z,8.63
2018-05-29T14:09:25.457Z,11.67
2018-05-29T14:11:52.985Z,8.80
2018-05-29T14:14:20.767Z,10.47
2018-05-29T14:16:48.291Z,10.87
2018-05-29T14:19:16.096Z,10.17
2018-05-29T14:21:43.555Z,9.73
2018-05-29T14:24:11.071Z,12.97
2018-05-29T14:26:38.530Z,10.87
2018-05-29T14:29:05.995Z,8.77
2018-05-29T14:31:33.476Z,10.90
2018-05-29T14:34:00.953Z,15.40
2018-05-29T14:36:28.410Z,13.00
2018-05-29T14:38:56.269Z,9.97
2018-05-29T14:41:23.774Z,11.43
2018-05-29T14:43:51.292Z,7.83
2018-05-29T14:46:18.711Z,9.30
2018-05-29T14:48:46.152Z,12.20
2018-05-29T14:51:15.490Z,9.70
2018-05-29T14:53:43.914Z,10.20
2018-05-29T14:56:11.406Z,9.63
2018-05-29T14:58:38.940Z,9.13
2018-05-29T15:01:06.372Z,9.87
2018-05-29T15:03:34.092Z,11.00
2018-05-29T15:06:01.891Z,12.40
2018-05-29T15:08:29.356Z,8.77
2018-05-29T15:10:56.878Z,8.30
2018-05-29T15:13:24.481Z,10.13
2018-05-29T15:15:51.962Z,6.83
2018-05-29T15:18:19.415Z,8.60
2018-05-29T15:20:46.940Z,8.73
2018-05-29T15:23:14.392Z,10.60
2018-05-29T15:25:41.875Z,10.70
2018-05-29T15:28:09.345Z,11.27
2018-05-29T15:30:37.678Z,11.00
2018-05-29T15:33:05.135Z,12.23
2018-05-29T15:35:32.625Z,11.33
2018-05-29T15:38:00.115Z,11.80
2018-05-29T15:40:27.567Z,8.57
2018-05-29T15:42:55.105Z,12.23
2018-05-29T15:45:22.557Z,11.27
2018-05-29T15:47:50.056Z,7.87
2018-05-29T15:50:17.645Z,19.07
2018-05-29T15:52:45.146Z,14.53
2018-05-29T15:55:12.583Z,14.60
2018-05-29T15:57:40.941Z,10.93
2018-05-29T16:00:08.459Z,9.47
2018-05-29T16:02:36.134Z,11.53
2018-05-29T16:05:03.620Z,12.10
2018-05-29T16:07:31.083Z,7.60
2018-05-29T16:09:58.943Z,10.80
2018-05-29T16:12:26.436Z,8.50
2018-05-29T16:14:53.914Z,6.87
2018-05-29T16:17:21.372Z,8.43
2018-05-29T16:19:48.944Z,9.20
2018-05-29T16:22:16.441Z,9.27
2018-05-29T16:24:44.055Z,10.13
2018-05-29T16:27:11.584Z,10.40
2018-05-29T16:29:39.210Z,10.20
2018-05-29T16:32:06.653Z,11.87
2018-05-29T16:34:34.483Z,9.80
2018-05-29T16:37:01.917Z,19.10
2018-05-29T16:39:29.746Z,11.00
2018-05-29T16:41:57.337Z,7.70
2018-05-29T16:44:24.841Z,7.33
2018-05-29T16:46:52.320Z,8.40
2018-05-29T16:49:19.827Z,8.30
2018-05-29T16:51:47.580Z,11.07
2018-05-29T16:54:15.158Z,8.60
2018-05-29T16:56:42.672Z,10.80
2018-05-29T16:59:10.292Z,11.27
2018-05-29T17:01:37.794Z,9.57
2018-05-29T17:04:05.458Z,17.10
2018-05-29T17:06:32.993Z,9.53
2018-05-29T17:09:00.694Z,11.17
2018-05-29T17:11:28.237Z,14.13
2018-05-29T17:13:55.740Z,11.93
2018-05-29T17:16:23.220Z,9.60
2018-05-29T17:18:50.838Z,11.30
2018-05-29T17:21:18.305Z,8.97
2018-05-29T17:23:45.829Z,9.13
2018-05-29T17:26:13.795Z,11.30
2018-05-29T17:28:41.270Z,12.10
2018-05-29T17:31:08.930Z,6.30
2018-05-29T17:33:36.433Z,7.27
2018-05-29T17:36:05.945Z,10.90
2018-05-29T17:38:35.418Z,9.13
2018-05-29T17:41:07.602Z,13.93
2018-05-29T17:43:37.503Z,8.00
2018-05-29T17:46:05.306Z,7.37
2018-05-29T17:48:32.818Z,8.47
2018-05-29T17:51:00.478Z,8.37
2018-05-29T17:53:30.620Z,8.23
2018-05-29T17:56:00.074Z,8.87
2018-05-29T17:58:29.515Z,6.43
2018-05-29T18:00:58.833Z,8.70
2018-05-29T18:03:26.712Z,7.40
2018-05-29T18:06:01.556Z,12.70
2018-05-29T18:08:31.690Z,7.90
2018-05-29T18:11:00.776Z,8.83
2018-05-29T18:13:28.518Z,6.67
2018-05-29T18:15:57.800Z,10.60
2018-05-29T18:18:26.454Z,6.83
2018-05-29T18:20:54.180Z,7.30
2018-05-29T18:23:21.900Z,8.40
2018-05-29T18:25:49.602Z,8.67
2018-05-29T18:28:17.251Z,6.37
2018-05-29T18:30:44.800Z,7.60
2018-05-29T18:33:12.333Z,6.47
2018-05-29T18:35:39.903Z,9.00
2018-05-29T18:38:10.916Z,8.73
2018-05-29T18:40:41.027Z,7.20
2018-05-29T18:43:08.535Z,10.60
2018-05-29T18:45:36.050Z,10.40
2018-05-29T18:48:03.500Z,9.77
2018-05-29T18:50:31.022Z,12.27
2018-05-29T18:52:58.487Z,5.63
2018-05-29T18:55:27.683Z,10.17
2018-05-29T18:57:55.184Z,6.63
2018-05-29T19:00:22.830Z,10.67
2018-05-29T19:02:50.506Z,8.67
2018-05-29T19:05:19.585Z,13.03
2018-05-29T19:07:47.043Z,9.90
2018-05-29T19:10:14.529Z,9.53
2018-05-29T19:12:42.009Z,9.30
2018-05-29T19:15:09.445Z,6.40
2018-05-29T19:17:36.971Z,10.70
2018-05-29T19:20:04.422Z,10.90
2018-05-29T19:22:31.908Z,9.80
2018-05-29T19:24:59.436Z,10.13
2018-05-29T19:27:26.968Z,10.13
2018-05-29T19:29:54.435Z,10.80
2018-05-29T19:32:21.947Z,10.37
2018-05-29T19:34:50.020Z,10.03
2018-05-29T19:37:17.494Z,12.20
2018-05-29T19:39:45.045Z,8.60
2018-05-29T19:42:12.549Z,11.30
2018-05-29T19:44:40.400Z,9.00
2018-05-29T19:47:07.968Z,12.43
2018-05-29T19:49:36.278Z,7.30
2018-05-29T19:52:04.682Z,8.80
2018-05-29T19:54:32.173Z,7.40
2018-05-29T19:56:59.666Z,8.47
2018-05-29T19:59:29.344Z,12.90
2018-05-29T20:01:58.893Z,10.20
2018-05-29T20:04:26.392Z,12.13
2018-05-29T20:06:56.808Z,13.63
2018-05-29T20:09:27.522Z,11.47
2018-05-29T20:11:59.545Z,10.10
2018-05-29T20:14:28.626Z,10.77
2018-05-29T20:16:58.428Z,11.67
2018-05-29T20:19:27.509Z,8.03
2018-05-29T20:21:56.135Z,13.10
2018-05-29T20:24:25.157Z,10.77
2018-05-29T20:26:57.997Z,12.30
2018-05-29T20:29:28.294Z,9.40
2018-05-29T20:32:00.066Z,13.83
2018-05-29T20:34:29.680Z,10.60
2018-05-29T20:36:58.262Z,10.33
2018-05-29T20:39:25.950Z,10.97
2018-05-29T20:41:54.184Z,11.30
2018-05-29T20:44:21.681Z,9.80
2018-05-29T20:46:49.268Z,11.47
2018-05-29T20:49:16.916Z,9.40
2018-05-29T20:51:44.386Z,12.10
2018-05-29T20:54:11.866Z,14.33
2018-05-29T20:56:39.428Z,10.97
2018-05-29T20:59:07.493Z,11.27
2018-05-29T21:01:35.045Z,14.90
2018-05-29T21:04:02.508Z,9.83
2018-05-29T21:06:29.980Z,9.27
2018-05-29T21:08:58.854Z,9.60
2018-05-29T21:11:26.361Z,12.20
2018-05-29T21:13:53.829Z,14.83
2018-05-29T21:16:21.365Z,11.67
2018-05-29T21:18:48.856Z,11.03
2018-05-29T21:21:16.389Z,15.63
2018-05-29T21:23:43.842Z,12.63
2018-05-29T21:26:11.359Z,11.67
2018-05-29T21:28:38.853Z,12.93
2018-05-29T21:31:06.583Z,10.03
2018-05-29T21:33:34.108Z,13.57
2018-05-29T21:36:01.564Z,14.63
2018-05-29T21:38:29.072Z,13.20
2018-05-29T21:40:56.524Z,14.40
2018-05-29T21:43:24.034Z,10.07
2018-05-29T21:45:51.494Z,10.67
2018-05-29T21:48:18.979Z,10.60
2018-05-29T21:50:46.444Z,11.93
2018-05-29T21:53:13.935Z,11.80
2018-05-29T21:55:41.420Z,16.27
2018-05-29T21:58:08.934Z,13.83
2018-05-29T22:00:36.391Z,13.97
2018-05-29T22:03:03.874Z,10.10
2018-05-29T22:05:31.378Z,11.03
2018-05-29T22:07:58.840Z,9.47
2018-05-29T22:10:26.402Z,9.80
2018-05-29T22:12:53.840Z,11.40
2018-05-29T22:15:21.298Z,9.07
2018-05-29T22:17:48.794Z,13.43
2018-05-29T22:20:16.278Z,11.90
2018-05-29T22:22:43.741Z,8.73
2018-05-29T22:25:11.972Z,17.27
2018-05-29T22:27:39.597Z,14.13
2018-05-29T22:30:07.091Z,14.57
2018-05-29T22:32:34.785Z,11.70
2018-05-29T22:35:03.047Z,12.37
2018-05-29T22:37:31.414Z,14.63
2018-05-29T22:39:58.910Z,16.27
2018-05-29T22:42:26.409Z,10.37
2018-05-29T22:44:53.873Z,11.70
2018-05-29T22:47:21.354Z,10.57
2018-05-29T22:49:48.820Z,13.40
2018-05-29T22:52:16.309Z,11.23
2018-05-29T22:54:43.766Z,12.87
2018-05-29T22:57:11.321Z,13.70
2018-05-29T22:59:38.818Z,11.73
2018-05-29T23:02:07.083Z,13.13
2018-05-29T23:04:34.533Z,14.70
2018-05-29T23:07:01.994Z,16.27
2018-05-29T23:09:29.524Z,15.50
2018-05-29T23:11:57.659Z,12.37
2018-05-29T23:14:25.164Z,19.97
2018-05-29T23:16:52.615Z,16.73
2018-05-29T23:19:20.066Z,12.03
2018-05-29T23:21:47.512Z,14.50
2018-05-29T23:24:15.089Z,14.27
2018-05-29T23:26:42.647Z,11.20
2018-05-29T23:29:10.223Z,17.20
2018-05-29T23:31:37.750Z,15.00
2018-05-29T23:34:05.398Z,16.10
2018-05-29T23:36:32.887Z,15.70
2018-05-29T23:39:01.016Z,14.13
2018-05-29T23:41:28.497Z,14.40
2018-05-29T23:43:56.118Z,15.20
2018-05-29T23:46:23.601Z,13.80
2018-05-29T23:48:51.045Z,17.33
2018-05-29T23:51:18.531Z,12.70
2018-05-29T23:53:45.984Z,13.50
2018-05-29T23:56:13.470Z,14.73
2018-05-29T23:58:40.990Z,12.50
